Time;durP1;ratioP1;P1;durP2;ratioP2;P2;SDS_P1;SDS_P2;PMS_P1;PMS_P2;Temp;Humidity;BMP_temperature;BMP_pressure;BME280_temperature;BME280_humidity;BME280_pressure;Samples;Min_cycle;Max_cycle;Signal;HPM_P1;HPM_P2
2021/04/13 00:00:24;;;;;;;6.43;2.70;;;1.80;99.90;;;;;;5047199;28;20148;-60
2021/04/13 00:02:54;;;;;;;8.23;3.13;;;1.80;99.90;;;;;;5048827;28;20122;-60
2021/04/13 00:05:37;;;;;;;8.18;2.97;;;1.90;99.90;;;;;;5047384;28;20145;-61
2021/04/13 00:08:11;;;;;;;10.23;3.20;;;1.80;99.90;;;;;;5047448;28;20060;-60
2021/04/13 00:10:58;;;;;;;13.13;3.45;;;1.80;99.90;;;;;;5045964;28;20049;-61
2021/04/13 00:13:25;;;;;;;8.77;2.90;;;1.80;99.90;;;;;;5045797;28;20057;-61
2021/04/13 00:15:55;;;;;;;8.65;2.85;;;1.80;99.90;;;;;;5047136;28;20054;-60
2021/04/13 00:18:27;;;;;;;7.25;2.72;;;1.70;99.90;;;;;;5047924;28;20041;-61
2021/04/13 00:20:58;;;;;;;12.63;2.70;;;1.60;99.90;;;;;;5050005;28;20033;-60
2021/04/13 00:23:25;;;;;;;10.70;3.00;;;1.50;99.90;;;;;;5047459;28;20155;-60
2021/04/13 00:25:53;;;;;;;9.75;3.40;;;1.40;99.90;;;;;;5045763;28;20090;-61
2021/04/13 00:28:44;;;;;;;10.02;3.35;;;1.30;99.90;;;;;;5046733;28;20046;-60
2021/04/13 00:31:38;;;;;;;9.95;3.13;;;1.30;99.90;;;;;;5040143;28;20069;-61
2021/04/13 00:34:28;;;;;;;8.70;2.75;;;1.20;99.90;;;;;;5047683;28;20062;-60
2021/04/13 00:37:11;;;;;;;8.57;2.78;;;1.20;99.90;;;;;;5046456;28;20048;-60
2021/04/13 00:39:37;;;;;;;8.73;2.80;;;1.10;99.90;;;;;;5046793;28;20076;-61
2021/04/13 00:42:09;;;;;;;10.47;2.90;;;1.10;99.90;;;;;;5045334;28;20036;-61
2021/04/13 00:44:49;;;;;;;10.50;2.78;;;1.00;99.90;;;;;;5045517;28;20156;-61
2021/04/13 00:47:26;;;;;;;10.77;2.95;;;1.00;99.90;;;;;;5043416;28;20390;-61
2021/04/13 00:49:55;;;;;;;10.15;3.00;;;1.00;99.90;;;;;;5045281;28;20053;-59
2021/04/13 00:52:29;;;;;;;12.05;2.95;;;1.00;99.90;;;;;;5047092;28;20083;-59
2021/04/13 00:54:58;;;;;;;7.97;2.95;;;1.00;99.90;;;;;;5044891;28;20085;-60
2021/04/13 00:57:32;;;;;;;12.45;2.75;;;1.00;99.90;;;;;;5044640;28;20084;-60
2021/04/13 01:00:00;;;;;;;10.70;2.70;;;1.10;99.90;;;;;;5046010;28;20211;-61
2021/04/13 01:02:30;;;;;;;11.98;2.88;;;1.20;99.90;;;;;;5044735;28;20048;-60
2021/04/13 01:05:03;;;;;;;10.38;2.97;;;1.20;99.90;;;;;;5046642;28;20139;-59
2021/04/13 01:07:36;;;;;;;8.80;2.80;;;1.20;99.90;;;;;;5041904;28;20064;-60
2021/04/13 01:10:11;;;;;;;9.32;3.25;;;1.20;99.90;;;;;;5042044;28;20099;-59
2021/04/13 01:12:40;;;;;;;8.30;3.10;;;1.20;99.90;;;;;;5043716;28;20052;-60
2021/04/13 01:15:10;;;;;;;8.05;2.67;;;1.20;99.90;;;;;;5045197;28;20049;-60
2021/04/13 01:17:38;;;;;;;9.18;2.47;;;1.10;99.90;;;;;;5046474;28;20065;-60
2021/04/13 01:20:12;;;;;;;10.75;3.30;;;1.10;99.90;;;;;;5046739;28;20116;-61
2021/04/13 01:22:56;;;;;;;12.30;2.90;;;1.10;99.90;;;;;;5048520;28;20080;-60
2021/04/13 01:25:31;;;;;;;9.45;2.72;;;1.00;99.90;;;;;;5048828;28;20049;-60
2021/04/13 01:28:23;;;;;;;6.60;2.50;;;1.00;99.90;;;;;;5047566;28;20060;-60
2021/04/13 01:30:56;;;;;;;15.38;3.08;;;1.00;99.90;;;;;;5040245;28;20172;-61
2021/04/13 01:33:48;;;;;;;11.32;2.92;;;0.90;99.90;;;;;;5046921;28;20113;-60
2021/04/13 01:36:26;;;;;;;11.27;3.47;;;0.90;99.90;;;;;;5043360;28;20052;-60
2021/04/13 01:39:10;;;;;;;12.32;3.00;;;0.90;99.90;;;;;;5045653;28;20132;-60
2021/04/13 01:41:59;;;;;;;19.47;4.77;;;0.90;99.90;;;;;;5046739;28;20057;-60
2021/04/13 01:44:31;;;;;;;10.40;2.95;;;0.90;99.90;;;;;;5046785;28;20315;-60
2021/04/13 01:46:57;;;;;;;16.30;3.33;;;0.80;99.90;;;;;;5047766;28;20049;-60
2021/04/13 01:49:23;;;;;;;9.55;2.70;;;0.80;99.90;;;;;;5046835;28;20049;-60
2021/04/13 01:51:51;;;;;;;9.48;3.47;;;0.70;99.90;;;;;;5043877;28;20436;-59
2021/04/13 01:54:17;;;;;;;9.05;2.88;;;0.70;99.90;;;;;;5042782;28;20105;-59
2021/04/13 01:56:55;;;;;;;12.13;3.30;;;0.60;99.90;;;;;;5040626;28;20075;-59
2021/04/13 01:59:29;;;;;;;10.93;3.25;;;0.60;99.90;;;;;;5040365;28;20332;-60
2021/04/13 02:02:01;;;;;;;10.20;2.90;;;0.60;99.90;;;;;;5041417;28;20071;-59
2021/04/13 02:04:34;;;;;;;9.85;3.67;;;0.60;99.90;;;;;;5042278;28;20037;-59
2021/04/13 02:07:31;;;;;;;9.85;3.15;;;0.60;99.90;;;;;;5042504;28;20524;-59
2021/04/13 02:10:06;;;;;;;13.52;3.67;;;0.60;99.90;;;;;;5040426;28;20049;-59
2021/04/13 02:12:37;;;;;;;13.20;3.50;;;0.60;99.90;;;;;;5043332;28;20293;-59
2021/04/13 02:15:26;;;;;;;17.55;3.38;;;0.50;99.90;;;;;;5042522;28;20378;-60
2021/04/13 02:17:59;;;;;;;10.95;3.50;;;0.50;99.90;;;;;;5045303;28;20160;-60
2021/04/13 02:20:34;;;;;;;12.93;3.10;;;0.50;99.90;;;;;;5045320;28;20300;-60
2021/04/13 02:23:02;;;;;;;13.70;2.95;;;0.50;99.90;;;;;;5045536;28;20038;-60
2021/04/13 02:25:34;;;;;;;12.57;2.95;;;0.50;99.90;;;;;;5046095;28;20045;-60
2021/04/13 02:28:02;;;;;;;16.27;3.13;;;0.50;99.90;;;;;;5047796;28;20136;-60
2021/04/13 02:30:41;;;;;;;11.75;3.20;;;0.50;99.90;;;;;;5047177;28;20045;-60
2021/04/13 02:33:12;;;;;;;12.05;3.42;;;0.50;99.90;;;;;;5047158;28;20053;-60
2021/04/13 02:35:40;;;;;;;16.15;3.17;;;0.50;99.90;;;;;;5048601;28;20077;-60
2021/04/13 02:38:12;;;;;;;9.05;2.80;;;0.60;99.90;;;;;;5046046;28;20041;-60
2021/04/13 02:41:04;;;;;;;10.88;3.05;;;0.70;99.90;;;;;;5047173;28;20129;-60
2021/04/13 02:43:42;;;;;;;13.40;3.00;;;0.80;99.90;;;;;;5043068;28;20061;-60
2021/04/13 02:46:12;;;;;;;17.60;3.70;;;0.90;99.90;;;;;;5043081;28;20049;-60
2021/04/13 02:48:43;;;;;;;14.68;2.97;;;1.00;99.90;;;;;;5043648;28;20107;-60
2021/04/13 02:51:14;;;;;;;14.82;3.00;;;1.10;99.90;;;;;;5044420;28;20156;-60
2021/04/13 02:53:49;;;;;;;9.43;2.35;;;1.10;99.90;;;;;;5040560;28;20056;-59
2021/04/13 02:56:18;;;;;;;;;;;1.00;99.90;;;;;;5040438;28;20097;-60
2021/04/13 02:59:05;;;;;;;14.75;2.53;;;1.00;99.90;;;;;;5043610;28;20424;-59
2021/04/13 03:01:33;;;;;;;19.15;3.13;;;0.90;99.90;;;;;;5043399;28;20033;-60
2021/04/13 03:04:08;;;;;;;13.50;2.97;;;0.90;99.90;;;;;;5039509;28;20038;-59
2021/04/13 03:06:53;;;;;;;14.60;2.92;;;0.90;99.90;;;;;;5042062;28;20065;-59
2021/04/13 03:09:22;;;;;;;15.93;3.15;;;0.90;99.90;;;;;;5040551;28;20049;-60
2021/04/13 03:11:53;;;;;;;12.80;2.88;;;0.80;99.90;;;;;;5038869;28;20041;-60
2021/04/13 03:14:20;;;;;;;23.13;3.10;;;0.80;99.90;;;;;;5041457;28;20097;-59
2021/04/13 03:16:47;;;;;;;21.40;3.28;;;0.70;99.90;;;;;;5040760;28;20114;-60
2021/04/13 03:19:17;;;;;;;13.93;2.97;;;0.70;99.90;;;;;;5040217;28;20097;-59
2021/04/13 03:21:48;;;;;;;10.07;2.92;;;0.70;99.90;;;;;;5038814;28;20080;-60
2021/04/13 03:24:21;;;;;;;14.40;2.67;;;0.70;99.90;;;;;;5037909;28;20101;-59
2021/04/13 03:26:52;;;;;;;13.98;2.72;;;0.60;99.90;;;;;;5041388;28;20041;-59
2021/04/13 03:29:22;;;;;;;18.63;3.50;;;0.60;99.90;;;;;;5043976;28;20092;-59
2021/04/13 03:31:50;;;;;;;17.35;3.30;;;0.60;99.90;;;;;;5044830;28;20045;-60
2021/04/13 03:34:17;;;;;;;18.65;3.28;;;0.50;99.90;;;;;;5043383;28;20104;-60
2021/04/13 03:36:45;;;;;;;13.55;3.25;;;0.50;99.90;;;;;;5040627;28;20045;-60
2021/04/13 03:39:24;;;;;;;16.65;3.33;;;0.40;99.90;;;;;;5043331;28;20488;-60
2021/04/13 03:41:50;;;;;;;11.70;3.10;;;0.50;99.90;;;;;;5045551;28;20050;-59
2021/04/13 03:44:18;;;;;;;15.93;3.22;;;0.50;99.90;;;;;;5044077;28;20045;-60
2021/04/13 03:46:45;;;;;;;15.40;3.20;;;0.40;99.90;;;;;;5043210;28;20045;-59
2021/04/13 03:49:19;;;;;;;15.88;3.22;;;0.50;99.90;;;;;;5043655;28;20117;-59
2021/04/13 03:51:49;;;;;;;33.30;3.42;;;0.40;99.90;;;;;;5042737;28;20429;-60
2021/04/13 03:54:30;;;;;;;25.10;3.92;;;0.40;99.90;;;;;;5043460;28;20061;-60
2021/04/13 03:56:56;;;;;;;20.15;3.47;;;0.40;99.90;;;;;;5046426;28;20089;-59
2021/04/13 03:59:24;;;;;;;18.40;3.60;;;0.50;99.90;;;;;;5045359;28;20041;-57
2021/04/13 04:01:51;;;;;;;18.95;3.60;;;0.10;99.90;;;;;;5044927;28;20101;-59
2021/04/13 04:04:33;;;;;;;17.40;3.88;;;0.50;99.90;;;;;;5045151;28;20045;-60
2021/04/13 04:07:18;;;;;;;25.45;5.22;;;0.40;99.90;;;;;;5043470;28;20084;-59
2021/04/13 04:09:44;;;;;;;24.15;3.97;;;0.50;99.90;;;;;;5042883;28;20049;-60
2021/04/13 04:12:19;;;;;;;22.93;4.00;;;0.40;99.90;;;;;;5044213;28;20453;-60
2021/04/13 04:15:09;;;;;;;21.70;4.47;;;0.40;99.90;;;;;;5043949;28;20111;-60
2021/04/13 04:17:49;;;;;;;15.35;3.80;;;0.40;99.90;;;;;;5043273;28;20122;-59
2021/04/13 04:20:15;;;;;;;20.63;4.18;;;0.40;99.90;;;;;;5043801;28;20099;-59
2021/04/13 04:22:51;;;;;;;23.73;4.00;;;0.40;99.90;;;;;;5044799;28;20053;-59
2021/04/13 04:25:30;;;;;;;23.63;5.00;;;0.30;99.90;;;;;;5042953;28;20102;-59
2021/04/13 04:28:00;;;;;;;19.80;4.72;;;0.30;99.90;;;;;;5040741;28;20041;-59
2021/04/13 04:30:44;;;;;;;16.80;4.00;;;0.30;99.90;;;;;;5042441;28;20107;-60
2021/04/13 04:33:37;;;;;;;18.20;4.27;;;0.30;99.90;;;;;;5041637;28;20081;-59
2021/04/13 04:36:31;;;;;;;19.85;4.68;;;0.30;99.90;;;;;;5042643;28;20049;-59
2021/04/13 04:39:23;;;;;;;22.13;4.43;;;0.30;99.90;;;;;;5037340;28;20068;-59
2021/04/13 04:41:50;;;;;;;34.47;5.90;;;0.30;99.90;;;;;;5043356;28;20049;-60
2021/04/13 04:44:24;;;;;;;20.10;4.63;;;0.20;99.90;;;;;;5042805;28;20061;-60
2021/04/13 04:46:50;;;;;;;24.20;4.28;;;0.20;99.90;;;;;;5042847;28;20137;-60
2021/04/13 04:49:18;;;;;;;32.03;5.15;;;0.30;99.90;;;;;;5044992;28;20052;-60
2021/04/13 04:51:52;;;;;;;26.20;5.40;;;0.30;99.90;;;;;;5043294;28;20067;-60
2021/04/13 04:54:18;;;;;;;31.05;5.10;;;0.20;99.90;;;;;;5043895;28;20049;-61
2021/04/13 04:56:44;;;;;;;33.80;5.40;;;0.20;99.90;;;;;;5045707;28;20041;-60
2021/04/13 04:59:09;;;;;;;23.17;4.50;;;0.20;99.90;;;;;;5041265;28;20045;-60
2021/04/13 05:01:35;;;;;;;27.03;5.40;;;0.20;99.90;;;;;;5043636;28;20047;-60
2021/04/13 05:04:01;;;;;;;22.73;4.77;;;0.20;99.90;;;;;;5048234;28;20069;-60
2021/04/13 05:06:27;;;;;;;18.83;4.57;;;0.30;99.90;;;;;;5052705;28;20033;-59
2021/04/13 05:08:54;;;;;;;25.58;5.75;;;0.30;99.90;;;;;;5054336;28;20105;-59
2021/04/13 05:11:20;;;;;;;36.00;8.63;;;0.20;99.90;;;;;;5055372;28;20059;-60
2021/04/13 05:13:46;;;;;;;28.45;8.85;;;0.40;99.90;;;;;;5046821;28;20053;-59
2021/04/13 05:16:12;;;;;;;31.27;8.47;;;0.40;99.90;;;;;;5032042;28;20064;-63
2021/04/13 05:18:38;;;;;;;30.65;7.80;;;0.60;99.90;;;;;;5030862;28;20057;-58
2021/04/13 05:21:04;;;;;;;25.87;5.00;;;0.70;99.90;;;;;;5044868;28;20095;-59
2021/04/13 05:23:30;;;;;;;27.55;5.68;;;0.80;99.90;;;;;;5049322;28;20380;-58
2021/04/13 05:25:56;;;;;;;30.77;5.73;;;0.90;99.90;;;;;;5050949;28;20057;-59
2021/04/13 05:28:22;;;;;;;18.53;5.27;;;1.00;99.90;;;;;;5051377;28;20128;-60
2021/04/13 05:30:50;;;;;;;25.88;5.20;;;1.10;99.90;;;;;;5059860;28;20083;-59
2021/04/13 05:33:18;;;;;;;15.10;3.72;;;1.30;99.90;;;;;;5066695;28;20122;-60
2021/04/13 05:35:43;;;;;;;16.40;4.40;;;1.50;99.90;;;;;;5061613;28;20045;-61
2021/04/13 05:38:16;;;;;;;16.33;4.10;;;1.50;99.90;;;;;;5066986;28;20052;-61
2021/04/13 05:40:42;;;;;;;21.90;4.47;;;1.60;99.90;;;;;;5063995;28;20089;-60
2021/04/13 05:43:10;;;;;;;17.30;4.28;;;1.70;99.90;;;;;;5059347;28;20131;-61
2021/04/13 05:45:39;;;;;;;23.77;4.43;;;1.80;99.90;;;;;;5059963;28;20048;-60
2021/04/13 05:48:06;;;;;;;14.95;3.75;;;1.90;99.90;;;;;;5063092;28;20040;-60
2021/04/13 05:50:35;;;;;;;31.77;5.03;;;2.00;99.90;;;;;;5061435;28;20361;-60
2021/04/13 05:53:01;;;;;;;17.75;4.07;;;2.10;99.90;;;;;;5061436;28;20045;-61
2021/04/13 05:55:30;;;;;;;18.00;4.03;;;2.20;99.90;;;;;;5061280;28;20051;-60
2021/04/13 05:58:17;;;;;;;13.38;3.80;;;2.40;99.90;;;;;;5051182;28;20334;-63
2021/04/13 06:00:50;;;;;;;15.07;3.17;;;2.40;99.90;;;;;;5061223;28;20049;-61
2021/04/13 06:03:18;;;;;;;23.33;3.45;;;2.50;99.90;;;;;;5065118;28;20139;-61
2021/04/13 06:05:44;;;;;;;15.25;3.08;;;2.50;99.90;;;;;;5063079;28;20099;-61
2021/04/13 06:08:11;;;;;;;18.77;3.45;;;2.40;99.90;;;;;;5058789;28;20051;-60
2021/04/13 06:10:37;;;;;;;20.67;3.45;;;2.30;99.90;;;;;;5061506;28;20097;-61
2021/04/13 06:13:04;;;;;;;17.00;3.37;;;2.40;99.90;;;;;;5064771;28;20041;-61
2021/04/13 06:15:32;;;;;;;17.85;3.10;;;2.50;99.90;;;;;;5066877;28;20037;-60
2021/04/13 06:17:58;;;;;;;18.67;3.30;;;2.50;99.90;;;;;;5059511;28;20025;-61
2021/04/13 06:20:25;;;;;;;16.77;3.40;;;2.50;99.90;;;;;;5055012;28;20033;-61
2021/04/13 06:22:52;;;;;;;14.77;3.80;;;2.60;99.90;;;;;;5071930;28;20388;-61
2021/04/13 06:25:20;;;;;;;19.75;3.50;;;2.60;99.90;;;;;;5072613;28;20163;-60
2021/04/13 06:27:46;;;;;;;17.85;3.38;;;2.70;99.90;;;;;;5071665;28;20040;-60
2021/04/13 06:30:13;;;;;;;21.53;3.80;;;2.80;99.90;;;;;;5071636;28;20077;-61
2021/04/13 06:32:38;;;;;;;22.27;3.83;;;2.80;99.90;;;;;;5069081;28;20037;-60
2021/04/13 06:35:05;;;;;;;25.87;3.43;;;2.90;99.90;;;;;;5070053;28;20091;-60
2021/04/13 06:37:32;;;;;;;26.17;3.97;;;3.00;99.90;;;;;;5063178;28;20053;-65
2021/04/13 06:39:58;;;;;;;21.83;4.30;;;3.10;99.90;;;;;;5056161;28;20044;-59
2021/04/13 06:43:07;;;;;;;22.37;4.40;;;3.20;99.90;;;;;;5069229;28;20045;-59
2021/04/13 06:45:45;;;;;;;20.70;3.70;;;3.20;99.90;;;;;;5015298;28;20084;-59
2021/04/13 06:48:41;;;;;;;23.60;4.32;;;3.20;99.90;;;;;;5049118;28;20061;-58
2021/04/13 06:51:12;;;;;;;14.43;3.78;;;3.40;99.90;;;;;;5042077;28;20045;-59
2021/04/13 06:54:12;;;;;;;15.07;3.38;;;3.40;99.90;;;;;;5053259;28;20067;-59
2021/04/13 06:56:57;;;;;;;20.75;3.28;;;3.50;99.90;;;;;;5070385;28;20056;-59
2021/04/13 06:59:50;;;;;;;14.30;3.10;;;3.60;99.90;;;;;;5068536;28;20049;-59
2021/04/13 07:02:26;;;;;;;13.90;3.00;;;3.70;99.90;;;;;;5067093;28;20048;-59
2021/04/13 07:05:04;;;;;;;15.13;3.05;;;3.70;99.90;;;;;;5068188;28;20072;-59
2021/04/13 07:07:56;;;;;;;17.42;3.42;;;3.90;99.90;;;;;;5068420;28;20052;-59
2021/04/13 07:10:43;;;;;;;22.02;3.90;;;4.00;99.90;;;;;;5066677;28;20036;-59
2021/04/13 07:13:32;;;;;;;14.95;3.05;;;4.10;99.90;;;;;;5067085;28;20109;-59
2021/04/13 07:16:01;;;;;;;15.68;2.95;;;4.20;99.90;;;;;;5064347;28;20044;-60
2021/04/13 07:18:46;;;;;;;16.35;3.28;;;4.20;99.90;;;;;;5065343;28;20140;-60
2021/04/13 07:21:13;;;;;;;15.35;2.70;;;4.40;99.90;;;;;;5050014;28;20056;-60
2021/04/13 07:23:59;;;;;;;14.00;2.40;;;4.50;99.90;;;;;;5052909;28;20064;-59
2021/04/13 07:26:35;;;;;;;15.90;3.13;;;4.60;99.90;;;;;;5042735;28;20049;-59
2021/04/13 07:29:12;;;;;;;16.75;2.40;;;4.60;99.90;;;;;;5046004;28;20049;-59
2021/04/13 07:32:03;;;;;;;14.07;3.08;;;4.70;99.90;;;;;;5054107;28;20033;-59
2021/04/13 07:34:31;;;;;;;14.95;2.90;;;4.80;99.90;;;;;;5053109;28;20441;-60
2021/04/13 07:37:16;;;;;;;12.63;3.08;;;4.90;99.90;;;;;;5053739;28;20627;-60
2021/04/13 07:39:46;;;;;;;10.80;2.25;;;5.00;99.90;;;;;;5052341;28;20122;-61
2021/04/13 07:42:19;;;;;;;12.43;2.70;;;5.00;99.90;;;;;;5055588;28;20072;-60
2021/04/13 07:45:27;;;;;;;11.65;2.08;;;5.10;99.90;;;;;;5065370;28;20049;-60
2021/04/13 07:48:20;;;;;;;10.93;2.20;;;5.20;99.90;;;;;;5065615;28;20101;-59
2021/04/13 07:51:11;;;;;;;9.10;2.13;;;5.30;99.90;;;;;;5064124;28;20071;-60
2021/04/13 07:53:52;;;;;;;10.27;2.47;;;5.40;99.90;;;;;;5061859;28;20068;-60
2021/04/13 07:56:29;;;;;;;9.35;2.58;;;5.40;99.90;;;;;;5063247;28;20116;-60
2021/04/13 07:59:17;;;;;;;12.75;2.03;;;5.60;99.90;;;;;;5061261;28;20079;-60
2021/04/13 08:01:45;;;;;;;15.00;1.95;;;5.70;99.90;;;;;;5059176;28;20045;-60
2021/04/13 08:04:12;;;;;;;12.32;2.00;;;5.80;99.90;;;;;;5058276;28;20124;-59
2021/04/13 08:06:53;;;;;;;9.75;1.75;;;6.00;99.90;;;;;;5061038;28;20144;-60
2021/04/13 08:09:39;;;;;;;15.90;1.90;;;6.10;99.90;;;;;;5060675;28;20036;-61
2021/04/13 08:12:29;;;;;;;10.65;1.67;;;6.20;99.90;;;;;;5061466;28;20041;-61
2021/04/13 08:14:55;;;;;;;9.10;1.80;;;6.40;99.90;;;;;;5066454;28;20048;-59
2021/04/13 08:17:22;;;;;;;12.03;1.93;;;6.50;99.90;;;;;;5064051;28;20096;-61
2021/04/13 08:20:04;;;;;;;8.98;1.30;;;6.40;92.20;;;;;;5065643;28;20053;-61
2021/04/13 08:22:49;;;;;;;13.35;2.05;;;6.30;92.50;;;;;;5061877;28;20044;-58
2021/04/13 08:25:37;;;;;;;8.20;1.55;;;6.30;96.30;;;;;;5061366;28;20041;-59
2021/04/13 08:28:09;;;;;;;10.95;2.40;;;6.40;98.50;;;;;;5062786;28;20124;-61
2021/04/13 08:30:46;;;;;;;10.27;1.67;;;6.50;94.70;;;;;;5065136;28;20097;-60
2021/04/13 08:33:36;;;;;;;10.88;1.20;;;6.60;92.00;;;;;;5049817;28;20100;-60
2021/04/13 08:36:16;;;;;;;10.02;1.45;;;6.50;92.20;;;;;;5043131;28;20041;-61
2021/04/13 08:38:58;;;;;;;8.38;1.27;;;6.60;87.10;;;;;;5036451;28;20064;-59
2021/04/13 08:42:02;;;;;;;11.27;1.23;;;6.60;83.00;;;;;;5045567;28;20120;-60
2021/04/13 08:44:46;;;;;;;6.78;1.40;;;6.90;77.10;;;;;;5042264;28;20041;-59
2021/04/13 08:47:20;;;;;;;;;;;7.10;78.90;;;;;;5035605;28;20575;-68
2021/04/13 08:49:51;;;;;;;7.90;1.50;;;7.10;83.10;;;;;;5046929;28;19960;-62
2021/04/13 08:52:23;;;;;;;6.03;1.48;;;6.70;82.10;;;;;;5048483;28;20088;-62
2021/04/13 08:54:59;;;;;;;8.88;1.70;;;6.70;76.10;;;;;;5047571;28;20049;-62
2021/04/13 08:57:34;;;;;;;7.30;1.35;;;6.60;78.10;;;;;;5051614;28;20037;-62
2021/04/13 09:00:24;;;;;;;7.07;1.52;;;6.70;84.40;;;;;;5048853;28;20061;-62
2021/04/13 09:02:59;;;;;;;8.85;2.15;;;6.80;73.20;;;;;;5054462;28;20071;-61
2021/04/13 09:05:27;;;;;;;8.52;1.50;;;7.00;76.30;;;;;;5065842;28;20032;-62
2021/04/13 09:08:27;;;;;;;10.02;2.47;;;7.20;79.70;;;;;;5054587;28;20052;-62
2021/04/13 09:11:24;;;;;;;8.75;1.95;;;7.50;74.60;;;;;;5061946;28;20103;-63
2021/04/13 09:14:01;;;;;;;8.45;1.40;;;7.60;72.50;;;;;;5054386;28;20123;-63
2021/04/13 09:16:27;;;;;;;8.20;1.70;;;7.40;68.20;;;;;;5052705;28;20115;-62
2021/04/13 09:19:00;;;;;;;7.10;1.30;;;7.30;72.70;;;;;;5043879;28;20499;-62
2021/04/13 09:21:57;;;;;;;7.28;1.40;;;7.30;71.40;;;;;;5044848;28;20296;-62
2021/04/13 09:24:39;;;;;;;6.82;1.20;;;7.30;64.10;;;;;;5045975;28;20060;-62
2021/04/13 09:27:14;;;;;;;3.13;1.13;;;7.30;68.00;;;;;;5053593;28;20170;-62
2021/04/13 09:29:56;;;;;;;4.65;1.10;;;7.40;66.80;;;;;;5048683;28;20090;-63
2021/04/13 09:32:25;;;;;;;7.85;1.70;;;7.80;62.60;;;;;;5049059;28;20068;-62
2021/04/13 09:35:15;;;;;;;3.58;0.95;;;8.00;66.70;;;;;;5043434;28;20068;-62
2021/04/13 09:37:55;;;;;;;7.55;1.25;;;8.00;63.10;;;;;;5057203;28;20083;-61
2021/04/13 09:40:23;;;;;;;6.15;1.20;;;7.60;66.90;;;;;;5054740;28;20048;-63
2021/04/13 09:43:03;;;;;;;5.70;1.10;;;7.50;68.60;;;;;;5060510;28;20127;-62
2021/04/13 09:45:51;;;;;;;8.50;1.75;;;7.40;69.00;;;;;;5049717;28;20100;-61
2021/04/13 09:48:48;;;;;;;4.88;1.10;;;7.40;73.10;;;;;;5044515;28;20443;-60
2021/04/13 09:51:38;;;;;;;4.67;0.80;;;7.50;75.70;;;;;;5039353;28;20127;-62
2021/04/13 09:54:41;;;;;;;8.30;1.10;;;7.60;74.50;;;;;;5031315;28;20335;-60
2021/04/13 09:57:21;;;;;;;6.82;1.42;;;7.60;69.10;;;;;;5030175;28;20045;-60
2021/04/13 09:59:56;;;;;;;3.22;1.33;;;7.50;71.70;;;;;;5028807;28;20044;-61
2021/04/13 10:02:50;;;;;;;5.30;1.27;;;7.50;64.90;;;;;;5029866;28;20093;-60
2021/04/13 10:05:20;;;;;;;8.63;1.30;;;7.40;68.80;;;;;;5029487;28;20091;-61
2021/04/13 10:08:18;;;;;;;7.37;1.20;;;7.50;71.30;;;;;;5030011;28;20159;-60
2021/04/13 10:11:08;;;;;;;7.00;1.77;;;7.60;66.60;;;;;;5030253;28;20304;-61
2021/04/13 10:13:49;;;;;;;6.72;1.10;;;7.90;68.70;;;;;;5030187;28;20053;-60
2021/04/13 10:16:39;;;;;;;7.07;1.23;;;8.10;66.10;;;;;;5030952;28;20049;-61
2021/04/13 10:19:11;;;;;;;3.97;1.10;;;8.40;64.30;;;;;;5033654;28;20123;-60
2021/04/13 10:22:05;;;;;;;5.82;1.42;;;8.40;70.20;;;;;;5053416;28;20045;-60
2021/04/13 10:24:46;;;;;;;3.58;1.40;;;8.50;62.80;;;;;;5053021;28;20123;-60
2021/04/13 10:27:49;;;;;;;9.13;1.93;;;8.40;64.00;;;;;;5053831;28;20045;-60
2021/04/13 10:30:35;;;;;;;8.20;1.87;;;8.40;65.10;;;;;;5058038;28;20812;-63
2021/04/13 10:33:24;;;;;;;4.30;1.30;;;8.30;66.20;;;;;;5061033;28;20386;-62
2021/04/13 10:35:56;;;;;;;5.97;1.53;;;8.30;71.90;;;;;;5070568;28;20370;-62
2021/04/13 10:38:43;;;;;;;5.83;1.30;;;8.20;72.60;;;;;;5070943;28;20314;-61
2021/04/13 10:41:18;;;;;;;3.47;1.33;;;8.20;69.40;;;;;;5068992;28;20374;-62
2021/04/13 10:43:59;;;;;;;4.73;1.10;;;8.40;75.50;;;;;;5069627;28;20291;-62
2021/04/13 10:46:41;;;;;;;6.82;1.20;;;8.30;72.10;;;;;;5070261;28;20363;-62
2021/04/13 10:49:35;;;;;;;4.63;1.30;;;8.40;68.70;;;;;;5054948;28;20129;-62
2021/04/13 10:52:28;;;;;;;3.87;1.20;;;8.40;68.60;;;;;;5059955;28;20298;-62
2021/04/13 10:55:20;;;;;;;5.13;1.25;;;8.40;67.00;;;;;;5071390;28;20349;-62
2021/04/13 10:58:14;;;;;;;7.45;1.38;;;8.60;60.80;;;;;;5056208;28;20231;-62
2021/04/13 11:00:53;;;;;;;4.55;1.30;;;8.80;65.00;;;;;;5020233;28;20045;-61
2021/04/13 11:03:40;;;;;;;5.80;2.50;;;9.00;68.50;;;;;;5051394;28;20048;-61
2021/04/13 11:06:30;;;;;;;7.33;2.13;;;9.10;63.90;;;;;;5051461;28;20311;-61
2021/04/13 11:09:30;;;;;;;4.73;1.60;;;9.10;63.20;;;;;;5066164;28;20369;-61
2021/04/13 11:12:08;;;;;;;4.47;1.10;;;9.10;61.40;;;;;;5062750;28;20307;-62
2021/04/13 11:14:39;;;;;;;4.33;1.00;;;9.20;58.90;;;;;;5070279;28;20307;-61
2021/04/13 11:17:16;;;;;;;4.83;1.63;;;9.00;54.70;;;;;;5051210;28;20300;-61
2021/04/13 11:20:17;;;;;;;4.30;0.90;;;9.10;57.00;;;;;;5056010;28;20470;-62
2021/04/13 11:23:21;;;;;;;4.57;1.20;;;9.20;55.40;;;;;;5065644;28;20352;-61
2021/04/13 11:26:10;;;;;;;3.60;1.00;;;9.60;60.20;;;;;;5071106;28;20306;-61
2021/04/13 11:28:44;;;;;;;5.37;1.13;;;9.80;57.40;;;;;;5059609;28;20295;-62
2021/04/13 11:31:14;;;;;;;2.50;1.00;;;9.80;53.30;;;;;;5068922;28;20313;-61
2021/04/13 11:33:43;;;;;;;6.40;1.73;;;9.70;57.70;;;;;;5070189;28;20037;-62
2021/04/13 11:36:28;;;;;;;4.77;1.07;;;9.50;56.30;;;;;;5068352;28;20295;-61
2021/04/13 11:39:23;;;;;;;4.53;1.23;;;9.20;58.70;;;;;;5065517;28;20485;-61
2021/04/13 11:42:08;;;;;;;8.43;1.63;;;8.90;58.80;;;;;;5066091;28;20295;-62
2021/04/13 11:44:43;;;;;;;6.72;1.20;;;8.90;59.90;;;;;;5066389;28;20291;-61
2021/04/13 11:47:35;;;;;;;6.33;1.60;;;8.80;61.50;;;;;;5067832;28;20106;-61
2021/04/13 11:50:09;;;;;;;2.93;1.20;;;8.70;60.20;;;;;;5045794;28;20283;-61
2021/04/13 11:53:03;;;;;;;3.25;0.80;;;8.50;59.20;;;;;;5069001;28;20280;-61
2021/04/13 11:55:30;;;;;;;2.50;0.77;;;8.00;60.00;;;;;;5053971;28;20057;-57
2021/04/13 11:58:07;;;;;;;1.43;0.80;;;8.10;60.80;;;;;;5052585;28;20053;-61
2021/04/13 12:00:33;;;;;;;2.53;1.00;;;8.20;60.60;;;;;;5052667;28;20334;-61
2021/04/13 12:03:25;;;;;;;3.23;1.20;;;8.30;56.50;;;;;;5052523;28;20327;-61
2021/04/13 12:05:56;;;;;;;6.23;1.53;;;8.50;61.30;;;;;;5052649;28;20053;-61
2021/04/13 12:08:31;;;;;;;2.47;1.30;;;8.60;61.60;;;;;;5053071;28;20341;-61
2021/04/13 12:11:03;;;;;;;6.50;1.00;;;8.60;62.10;;;;;;5052549;28;20401;-62
2021/04/13 12:13:49;;;;;;;3.93;0.97;;;8.70;61.30;;;;;;5051932;28;20307;-59
2021/04/13 12:16:19;;;;;;;4.17;0.90;;;8.90;63.10;;;;;;5051893;28;20662;-58
2021/04/13 12:18:47;;;;;;;3.53;1.10;;;9.10;63.20;;;;;;5052167;28;20386;-60
2021/04/13 12:21:21;;;;;;;8.27;1.40;;;9.40;61.30;;;;;;5052206;28;20306;-60
2021/04/13 12:23:47;;;;;;;;;;;9.70;59.50;;;;;;5052303;28;20425;-60
2021/04/13 12:26:34;;;;;;;4.27;1.30;;;9.70;57.60;;;;;;5051919;28;20024;-60
2021/04/13 12:29:21;;;;;;;7.73;1.13;;;9.60;55.90;;;;;;5051428;28;20103;-61
2021/04/13 12:32:12;;;;;;;4.23;1.17;;;9.30;61.70;;;;;;5053727;28;20319;-58
2021/04/13 12:34:48;;;;;;;5.83;1.73;;;8.60;77.70;;;;;;5052857;28;20315;-58
2021/04/13 12:37:41;;;;;;;4.17;0.90;;;8.40;81.90;;;;;;5053829;28;20295;-58
2021/04/13 12:40:19;;;;;;;7.00;1.30;;;8.30;68.30;;;;;;5054642;28;20390;-58
2021/04/13 12:42:54;;;;;;;6.47;1.80;;;8.40;69.10;;;;;;5055971;28;20353;-61
2021/04/13 12:45:23;;;;;;;6.33;1.63;;;8.40;66.30;;;;;;5051931;28;20307;-61
2021/04/13 12:48:00;;;;;;;4.40;0.97;;;8.20;62.70;;;;;;5051441;28;20445;-62
2021/04/13 12:50:36;;;;;;;7.10;0.97;;;8.10;61.90;;;;;;5052655;28;20295;-61
2021/04/13 12:53:09;;;;;;;3.13;1.00;;;8.10;63.40;;;;;;5053347;28;20619;-61
2021/04/13 12:55:35;;;;;;;5.35;0.90;;;8.10;66.20;;;;;;5054129;28;20340;-60
2021/04/13 12:58:10;;;;;;;5.03;1.20;;;8.10;58.40;;;;;;5048585;28;20067;-60
2021/04/13 13:00:43;;;;;;;6.07;1.30;;;8.20;61.30;;;;;;5050938;28;20120;-58
2021/04/13 13:03:38;;;;;;;3.47;0.80;;;8.30;57.90;;;;;;5051070;28;20303;-58
2021/04/13 13:06:27;;;;;;;2.50;1.00;;;8.30;57.50;;;;;;5047746;28;20310;-62
2021/04/13 13:09:01;;;;;;;3.50;1.30;;;8.40;56.80;;;;;;5055533;28;20299;-58
2021/04/13 13:11:28;;;;;;;6.15;1.10;;;8.40;58.00;;;;;;5056268;28;20303;-58
2021/04/13 13:13:54;;;;;;;6.20;1.00;;;8.40;57.00;;;;;;5051376;28;20083;-60
2021/04/13 13:16:26;;;;;;;5.53;1.03;;;8.40;57.10;;;;;;5051642;28;20722;-61
2021/04/13 13:18:55;;;;;;;4.17;1.17;;;8.30;58.30;;;;;;5061751;28;20291;-62
2021/04/13 13:21:24;;;;;;;4.27;1.07;;;8.30;57.10;;;;;;5059876;28;20453;-62
2021/04/13 13:23:59;;;;;;;6.43;1.30;;;7.60;77.30;;;;;;5059347;28;20304;-62
2021/04/13 13:26:25;;;;;;;5.47;1.20;;;7.60;67.60;;;;;;5055346;28;20319;-62
2021/04/13 13:28:50;;;;;;;5.27;0.70;;;7.90;72.60;;;;;;5059674;28;20329;-62
2021/04/13 13:31:37;;;;;;;5.77;1.00;;;7.90;66.40;;;;;;5059501;28;20049;-62
2021/04/13 13:34:13;;;;;;;7.60;1.13;;;8.00;67.50;;;;;;5067976;28;20064;-62
2021/04/13 13:36:41;;;;;;;6.20;1.00;;;8.10;60.60;;;;;;5053969;28;20052;-61
2021/04/13 13:39:14;;;;;;;4.77;1.10;;;8.40;62.20;;;;;;5053129;28;20299;-61
2021/04/13 13:41:45;;;;;;;5.13;1.00;;;8.40;59.20;;;;;;5056997;28;20611;-62